<?xml version="1.0" encoding="UTF-8" standalone="no" ?>
<gpx xmlns="http://www.topografix.com/GPX/1/1" xmlns:xsi="http://www.w3.org/2001/XMLSchema-instance" xsi:schemaLocation="http://www.topografix.com/GPX/1/1 http://www.topografix.com/GPX/1/1/gpx.xsd" version="1.1" creator="VisuGPX - https://www.visugpx.com">
  <metadata>
    <name>Course à pied dans l'après-midi</name>
  </metadata>
  <trk>
    <name><![CDATA[Course à pied dans l'après-midi_1]]></name>
    <trkseg>
      <trkpt lat="45.69343" lon="-1.17726">
        <ele>8.5</ele>
        <time>2023-10-28T13:55:55Z</time>
      </trkpt>
      <trkpt lat="45.69329" lon="-1.1774">
        <ele>8.8</ele>
        <time>2023-10-28T13:56:05Z</time>
      </trkpt>
      <trkpt lat="45.69311" lon="-1.17735">
        <ele>8.9</ele>
        <time>2023-10-28T13:56:11Z</time>
      </trkpt>
      <trkpt lat="45.69309" lon="-1.17705">
        <ele>8.9</ele>
        <time>2023-10-28T13:56:17Z</time>
      </trkpt>
      <trkpt lat="45.69315" lon="-1.17698">
        <ele>8.9</ele>
        <time>2023-10-28T13:56:18Z</time>
      </trkpt>
      <trkpt lat="45.69325" lon="-1.17684">
        <ele>8.8</ele>
        <time>2023-10-28T13:56:23Z</time>
      </trkpt>
      <trkpt lat="45.69327" lon="-1.17668">
        <ele>8.7</ele>
        <time>2023-10-28T13:56:26Z</time>
      </trkpt>
      <trkpt lat="45.69329" lon="-1.17661">
        <ele>8.7</ele>
        <time>2023-10-28T13:56:28Z</time>
      </trkpt>
      <trkpt lat="45.69339" lon="-1.17657">
        <ele>8.4</ele>
        <time>2023-10-28T13:56:31Z</time>
      </trkpt>
      <trkpt lat="45.69346" lon="-1.17654">
        <ele>8.2</ele>
        <time>2023-10-28T13:56:33Z</time>
      </trkpt>
      <trkpt lat="45.69353" lon="-1.17627">
        <ele>7.9</ele>
        <time>2023-10-28T13:56:39Z</time>
      </trkpt>
      <trkpt lat="45.69359" lon="-1.17599">
        <ele>7.7</ele>
        <time>2023-10-28T13:56:45Z</time>
      </trkpt>
      <trkpt lat="45.69359" lon="-1.17572">
        <ele>7.5</ele>
        <time>2023-10-28T13:56:49Z</time>
      </trkpt>
      <trkpt lat="45.69358" lon="-1.17564">
        <ele>7.7</ele>
        <time>2023-10-28T13:56:50Z</time>
      </trkpt>
      <trkpt lat="45.69355" lon="-1.17543">
        <ele>7.9</ele>
        <time>2023-10-28T13:56:53Z</time>
      </trkpt>
      <trkpt lat="45.69355" lon="-1.17531">
        <ele>7.9</ele>
        <time>2023-10-28T13:56:55Z</time>
      </trkpt>
      <trkpt lat="45.69356" lon="-1.17514">
        <ele>7.9</ele>
        <time>2023-10-28T13:56:58Z</time>
      </trkpt>
      <trkpt lat="45.69353" lon="-1.17506">
        <ele>8</ele>
        <time>2023-10-28T13:57:00Z</time>
      </trkpt>
      <trkpt lat="45.69346" lon="-1.17504">
        <ele>8.8</ele>
        <time>2023-10-28T13:57:03Z</time>
      </trkpt>
      <trkpt lat="45.69341" lon="-1.17506">
        <ele>9.1</ele>
        <time>2023-10-28T13:57:06Z</time>
      </trkpt>
      <trkpt lat="45.69335" lon="-1.17512">
        <ele>9.6</ele>
        <time>2023-10-28T13:57:10Z</time>
      </trkpt>
      <trkpt lat="45.69319" lon="-1.175">
        <ele>11</ele>
        <time>2023-10-28T13:57:18Z</time>
      </trkpt>
      <trkpt lat="45.69311" lon="-1.17499">
        <ele>11.1</ele>
        <time>2023-10-28T13:57:24Z</time>
      </trkpt>
      <trkpt lat="45.69306" lon="-1.17524">
        <ele>10.8</ele>
        <time>2023-10-28T13:57:31Z</time>
      </trkpt>
      <trkpt lat="45.69298" lon="-1.17552">
        <ele>10</ele>
        <time>2023-10-28T13:57:36Z</time>
      </trkpt>
      <trkpt lat="45.69284" lon="-1.17575">
        <ele>9.1</ele>
        <time>2023-10-28T13:57:40Z</time>
      </trkpt>
      <trkpt lat="45.69267" lon="-1.17587">
        <ele>8.3</ele>
        <time>2023-10-28T13:57:45Z</time>
      </trkpt>
      <trkpt lat="45.69247" lon="-1.17585">
        <ele>7.7</ele>
        <time>2023-10-28T13:57:50Z</time>
      </trkpt>
      <trkpt lat="45.69226" lon="-1.17594">
        <ele>7.4</ele>
        <time>2023-10-28T13:57:55Z</time>
      </trkpt>
      <trkpt lat="45.69203" lon="-1.17598">
        <ele>6.9</ele>
        <time>2023-10-28T13:58:00Z</time>
      </trkpt>
      <trkpt lat="45.69187" lon="-1.17599">
        <ele>6.7</ele>
        <time>2023-10-28T13:58:03Z</time>
      </trkpt>
      <trkpt lat="45.69178" lon="-1.17604">
        <ele>6.5</ele>
        <time>2023-10-28T13:58:05Z</time>
      </trkpt>
      <trkpt lat="45.69167" lon="-1.17618">
        <ele>6.3</ele>
        <time>2023-10-28T13:58:08Z</time>
      </trkpt>
      <trkpt lat="45.69153" lon="-1.1764">
        <ele>6.3</ele>
        <time>2023-10-28T13:58:12Z</time>
      </trkpt>
      <trkpt lat="45.6914" lon="-1.17661">
        <ele>6.3</ele>
        <time>2023-10-28T13:58:16Z</time>
      </trkpt>
      <trkpt lat="45.69142" lon="-1.17675">
        <ele>6.3</ele>
        <time>2023-10-28T13:58:18Z</time>
      </trkpt>
      <trkpt lat="45.69154" lon="-1.17687">
        <ele>6.3</ele>
        <time>2023-10-28T13:58:21Z</time>
      </trkpt>
      <trkpt lat="45.69166" lon="-1.1769">
        <ele>6.4</ele>
        <time>2023-10-28T13:58:24Z</time>
      </trkpt>
      <trkpt lat="45.69176" lon="-1.17694">
        <ele>6.5</ele>
        <time>2023-10-28T13:58:27Z</time>
      </trkpt>
      <trkpt lat="45.69183" lon="-1.17695">
        <ele>6.6</ele>
        <time>2023-10-28T13:58:29Z</time>
      </trkpt>
      <trkpt lat="45.69191" lon="-1.17707">
        <ele>7.1</ele>
        <time>2023-10-28T13:58:32Z</time>
      </trkpt>
      <trkpt lat="45.6919" lon="-1.17718">
        <ele>7.2</ele>
        <time>2023-10-28T13:58:34Z</time>
      </trkpt>
      <trkpt lat="45.69184" lon="-1.17747">
        <ele>7.6</ele>
        <time>2023-10-28T13:58:39Z</time>
      </trkpt>
      <trkpt lat="45.69182" lon="-1.17753">
        <ele>7.7</ele>
        <time>2023-10-28T13:58:40Z</time>
      </trkpt>
      <trkpt lat="45.6917" lon="-1.17779">
        <ele>7.8</ele>
        <time>2023-10-28T13:58:45Z</time>
      </trkpt>
      <trkpt lat="45.69173" lon="-1.17794">
        <ele>7.9</ele>
        <time>2023-10-28T13:58:48Z</time>
      </trkpt>
      <trkpt lat="45.69194" lon="-1.17803">
        <ele>8.2</ele>
        <time>2023-10-28T13:58:53Z</time>
      </trkpt>
      <trkpt lat="45.69213" lon="-1.17807">
        <ele>8.5</ele>
        <time>2023-10-28T13:59:00Z</time>
      </trkpt>
      <trkpt lat="45.69215" lon="-1.17798">
        <ele>8.6</ele>
        <time>2023-10-28T13:59:01Z</time>
      </trkpt>
      <trkpt lat="45.69217" lon="-1.17794">
        <ele>8.6</ele>
        <time>2023-10-28T13:59:03Z</time>
      </trkpt>
      <trkpt lat="45.69226" lon="-1.17785">
        <ele>8.6</ele>
        <time>2023-10-28T13:59:06Z</time>
      </trkpt>
      <trkpt lat="45.69236" lon="-1.17782">
        <ele>8.7</ele>
        <time>2023-10-28T13:59:09Z</time>
      </trkpt>
      <trkpt lat="45.69248" lon="-1.1778">
        <ele>8.7</ele>
        <time>2023-10-28T13:59:12Z</time>
      </trkpt>
      <trkpt lat="45.69255" lon="-1.17775">
        <ele>8.7</ele>
        <time>2023-10-28T13:59:14Z</time>
      </trkpt>
      <trkpt lat="45.69264" lon="-1.1776">
        <ele>8.6</ele>
        <time>2023-10-28T13:59:21Z</time>
      </trkpt>
      <trkpt lat="45.69275" lon="-1.1776">
        <ele>8.5</ele>
        <time>2023-10-28T13:59:28Z</time>
      </trkpt>
      <trkpt lat="45.69281" lon="-1.17761">
        <ele>8.5</ele>
        <time>2023-10-28T13:59:34Z</time>
      </trkpt>
      <trkpt lat="45.69277" lon="-1.17735">
        <ele>8.4</ele>
        <time>2023-10-28T13:59:44Z</time>
      </trkpt>
      <trkpt lat="45.6928" lon="-1.1772">
        <ele>8.3</ele>
        <time>2023-10-28T13:59:47Z</time>
      </trkpt>
      <trkpt lat="45.69282" lon="-1.17715">
        <ele>8.2</ele>
        <time>2023-10-28T13:59:51Z</time>
      </trkpt>
      <trkpt lat="45.69276" lon="-1.17688">
        <ele>7.9</ele>
        <time>2023-10-28T13:59:57Z</time>
      </trkpt>
      <trkpt lat="45.69274" lon="-1.17681">
        <ele>7.7</ele>
        <time>2023-10-28T13:59:58Z</time>
      </trkpt>
      <trkpt lat="45.69267" lon="-1.17667">
        <ele>7.4</ele>
        <time>2023-10-28T14:00:01Z</time>
      </trkpt>
      <trkpt lat="45.6925" lon="-1.17658">
        <ele>6.9</ele>
        <time>2023-10-28T14:00:06Z</time>
      </trkpt>
      <trkpt lat="45.69231" lon="-1.17655">
        <ele>6.4</ele>
        <time>2023-10-28T14:00:12Z</time>
      </trkpt>
      <trkpt lat="45.69229" lon="-1.17628">
        <ele>6.3</ele>
        <time>2023-10-28T14:00:18Z</time>
      </trkpt>
      <trkpt lat="45.69235" lon="-1.17619">
        <ele>6.3</ele>
        <time>2023-10-28T14:00:22Z</time>
      </trkpt>
      <trkpt lat="45.69236" lon="-1.17618">
        <ele>6.3</ele>
        <time>2023-10-28T14:00:24Z</time>
      </trkpt>
      <trkpt lat="45.69234" lon="-1.17622">
        <ele>6.2</ele>
        <time>2023-10-28T14:00:28Z</time>
      </trkpt>
      <trkpt lat="45.69243" lon="-1.17601">
        <ele>6.3</ele>
        <time>2023-10-28T14:00:36Z</time>
      </trkpt>
      <trkpt lat="45.69249" lon="-1.17572">
        <ele>6.7</ele>
        <time>2023-10-28T14:00:41Z</time>
      </trkpt>
      <trkpt lat="45.69256" lon="-1.17562">
        <ele>6.9</ele>
        <time>2023-10-28T14:00:44Z</time>
      </trkpt>
      <trkpt lat="45.69257" lon="-1.17544">
        <ele>7.2</ele>
        <time>2023-10-28T14:00:47Z</time>
      </trkpt>
      <trkpt lat="45.69256" lon="-1.1753">
        <ele>7.2</ele>
        <time>2023-10-28T14:00:49Z</time>
      </trkpt>
      <trkpt lat="45.69248" lon="-1.17502">
        <ele>7.2</ele>
        <time>2023-10-28T14:00:53Z</time>
      </trkpt>
      <trkpt lat="45.69245" lon="-1.17495">
        <ele>7.2</ele>
        <time>2023-10-28T14:00:54Z</time>
      </trkpt>
      <trkpt lat="45.69236" lon="-1.17477">
        <ele>7.2</ele>
        <time>2023-10-28T14:00:57Z</time>
      </trkpt>
      <trkpt lat="45.69228" lon="-1.17469">
        <ele>7.1</ele>
        <time>2023-10-28T14:00:59Z</time>
      </trkpt>
      <trkpt lat="45.69217" lon="-1.17466">
        <ele>7</ele>
        <time>2023-10-28T14:01:01Z</time>
      </trkpt>
      <trkpt lat="45.69197" lon="-1.17461">
        <ele>6.9</ele>
        <time>2023-10-28T14:01:05Z</time>
      </trkpt>
      <trkpt lat="45.69179" lon="-1.17459">
        <ele>6.9</ele>
        <time>2023-10-28T14:01:09Z</time>
      </trkpt>
      <trkpt lat="45.69175" lon="-1.17461">
        <ele>6.8</ele>
        <time>2023-10-28T14:01:10Z</time>
      </trkpt>
      <trkpt lat="45.69167" lon="-1.17475">
        <ele>6.6</ele>
        <time>2023-10-28T14:01:13Z</time>
      </trkpt>
      <trkpt lat="45.69157" lon="-1.17497">
        <ele>6.3</ele>
        <time>2023-10-28T14:01:17Z</time>
      </trkpt>
      <trkpt lat="45.69151" lon="-1.1752">
        <ele>6</ele>
        <time>2023-10-28T14:01:21Z</time>
      </trkpt>
      <trkpt lat="45.69155" lon="-1.17535">
        <ele>5.9</ele>
        <time>2023-10-28T14:01:24Z</time>
      </trkpt>
      <trkpt lat="45.69162" lon="-1.17546">
        <ele>5.8</ele>
        <time>2023-10-28T14:01:27Z</time>
      </trkpt>
      <trkpt lat="45.69157" lon="-1.17566">
        <ele>5.6</ele>
        <time>2023-10-28T14:01:34Z</time>
      </trkpt>
      <trkpt lat="45.69159" lon="-1.17563">
        <ele>5.6</ele>
        <time>2023-10-28T14:01:36Z</time>
      </trkpt>
      <trkpt lat="45.69164" lon="-1.17538">
        <ele>5.9</ele>
        <time>2023-10-28T14:01:42Z</time>
      </trkpt>
      <trkpt lat="45.69161" lon="-1.17523">
        <ele>6.1</ele>
        <time>2023-10-28T14:01:45Z</time>
      </trkpt>
      <trkpt lat="45.6916" lon="-1.17502">
        <ele>6.4</ele>
        <time>2023-10-28T14:01:50Z</time>
      </trkpt>
      <trkpt lat="45.69179" lon="-1.175">
        <ele>6.5</ele>
        <time>2023-10-28T14:01:55Z</time>
      </trkpt>
      <trkpt lat="45.69185" lon="-1.17494">
        <ele>6.7</ele>
        <time>2023-10-28T14:01:59Z</time>
      </trkpt>
      <trkpt lat="45.69176" lon="-1.17493">
        <ele>6.6</ele>
        <time>2023-10-28T14:02:03Z</time>
      </trkpt>
      <trkpt lat="45.69159" lon="-1.1749">
        <ele>6.5</ele>
        <time>2023-10-28T14:02:08Z</time>
      </trkpt>
      <trkpt lat="45.69159" lon="-1.17485">
        <ele>6.6</ele>
        <time>2023-10-28T14:02:09Z</time>
      </trkpt>
      <trkpt lat="45.69167" lon="-1.17459">
        <ele>7</ele>
        <time>2023-10-28T14:02:14Z</time>
      </trkpt>
      <trkpt lat="45.69174" lon="-1.17444">
        <ele>7.3</ele>
        <time>2023-10-28T14:02:17Z</time>
      </trkpt>
      <trkpt lat="45.69183" lon="-1.17419">
        <ele>7.7</ele>
        <time>2023-10-28T14:02:22Z</time>
      </trkpt>
      <trkpt lat="45.69184" lon="-1.17402">
        <ele>7.9</ele>
        <time>2023-10-28T14:02:25Z</time>
      </trkpt>
      <trkpt lat="45.69174" lon="-1.17387">
        <ele>8</ele>
        <time>2023-10-28T14:02:29Z</time>
      </trkpt>
      <trkpt lat="45.6917" lon="-1.17372">
        <ele>8.2</ele>
        <time>2023-10-28T14:02:32Z</time>
      </trkpt>
      <trkpt lat="45.69169" lon="-1.17346">
        <ele>8.5</ele>
        <time>2023-10-28T14:02:37Z</time>
      </trkpt>
      <trkpt lat="45.69169" lon="-1.17336">
        <ele>8.6</ele>
        <time>2023-10-28T14:02:38Z</time>
      </trkpt>
      <trkpt lat="45.69173" lon="-1.17328">
        <ele>8.8</ele>
        <time>2023-10-28T14:02:41Z</time>
      </trkpt>
      <trkpt lat="45.69178" lon="-1.17301">
        <ele>9.1</ele>
        <time>2023-10-28T14:02:47Z</time>
      </trkpt>
      <trkpt lat="45.69182" lon="-1.17287">
        <ele>9.1</ele>
        <time>2023-10-28T14:02:51Z</time>
      </trkpt>
      <trkpt lat="45.69193" lon="-1.17265">
        <ele>9.2</ele>
        <time>2023-10-28T14:02:58Z</time>
      </trkpt>
      <trkpt lat="45.69201" lon="-1.17238">
        <ele>9.1</ele>
        <time>2023-10-28T14:03:05Z</time>
      </trkpt>
      <trkpt lat="45.69208" lon="-1.17213">
        <ele>8.5</ele>
        <time>2023-10-28T14:03:10Z</time>
      </trkpt>
      <trkpt lat="45.69212" lon="-1.17187">
        <ele>7.8</ele>
        <time>2023-10-28T14:03:17Z</time>
      </trkpt>
      <trkpt lat="45.69205" lon="-1.1716">
        <ele>7.3</ele>
        <time>2023-10-28T14:03:23Z</time>
      </trkpt>
      <trkpt lat="45.69196" lon="-1.17138">
        <ele>7.2</ele>
        <time>2023-10-28T14:03:28Z</time>
      </trkpt>
      <trkpt lat="45.69187" lon="-1.17137">
        <ele>7.3</ele>
        <time>2023-10-28T14:03:34Z</time>
      </trkpt>
      <trkpt lat="45.69178" lon="-1.17113">
        <ele>7.5</ele>
        <time>2023-10-28T14:03:41Z</time>
      </trkpt>
      <trkpt lat="45.69158" lon="-1.17113">
        <ele>7.8</ele>
        <time>2023-10-28T14:03:48Z</time>
      </trkpt>
      <trkpt lat="45.69138" lon="-1.17117">
        <ele>7.6</ele>
        <time>2023-10-28T14:03:53Z</time>
      </trkpt>
      <trkpt lat="45.69129" lon="-1.17113">
        <ele>7.5</ele>
        <time>2023-10-28T14:03:54Z</time>
      </trkpt>
      <trkpt lat="45.69112" lon="-1.17097">
        <ele>7.1</ele>
        <time>2023-10-28T14:03:59Z</time>
      </trkpt>
      <trkpt lat="45.69107" lon="-1.17097">
        <ele>6.9</ele>
        <time>2023-10-28T14:04:00Z</time>
      </trkpt>
      <trkpt lat="45.69093" lon="-1.17103">
        <ele>6.5</ele>
        <time>2023-10-28T14:04:03Z</time>
      </trkpt>
      <trkpt lat="45.69078" lon="-1.171">
        <ele>6.2</ele>
        <time>2023-10-28T14:04:06Z</time>
      </trkpt>
      <trkpt lat="45.69062" lon="-1.17085">
        <ele>6.1</ele>
        <time>2023-10-28T14:04:10Z</time>
      </trkpt>
      <trkpt lat="45.69056" lon="-1.17075">
        <ele>6.1</ele>
        <time>2023-10-28T14:04:11Z</time>
      </trkpt>
      <trkpt lat="45.69054" lon="-1.1707">
        <ele>6.1</ele>
        <time>2023-10-28T14:04:13Z</time>
      </trkpt>
      <trkpt lat="45.69058" lon="-1.17053">
        <ele>6.1</ele>
        <time>2023-10-28T14:04:16Z</time>
      </trkpt>
      <trkpt lat="45.69067" lon="-1.17041">
        <ele>6.1</ele>
        <time>2023-10-28T14:04:19Z</time>
      </trkpt>
      <trkpt lat="45.69078" lon="-1.17042">
        <ele>6.1</ele>
        <time>2023-10-28T14:04:29Z</time>
      </trkpt>
      <trkpt lat="45.69069" lon="-1.17018">
        <ele>6</ele>
        <time>2023-10-28T14:04:36Z</time>
      </trkpt>
      <trkpt lat="45.69058" lon="-1.16997">
        <ele>6.2</ele>
        <time>2023-10-28T14:04:40Z</time>
      </trkpt>
      <trkpt lat="45.6905" lon="-1.1698">
        <ele>6.5</ele>
        <time>2023-10-28T14:04:43Z</time>
      </trkpt>
      <trkpt lat="45.69051" lon="-1.16968">
        <ele>6.5</ele>
        <time>2023-10-28T14:04:45Z</time>
      </trkpt>
      <trkpt lat="45.69063" lon="-1.16949">
        <ele>6.5</ele>
        <time>2023-10-28T14:04:49Z</time>
      </trkpt>
      <trkpt lat="45.69079" lon="-1.16932">
        <ele>6.5</ele>
        <time>2023-10-28T14:04:53Z</time>
      </trkpt>
      <trkpt lat="45.69085" lon="-1.16924">
        <ele>6.4</ele>
        <time>2023-10-28T14:04:54Z</time>
      </trkpt>
      <trkpt lat="45.69086" lon="-1.1692">
        <ele>6.5</ele>
        <time>2023-10-28T14:04:56Z</time>
      </trkpt>
      <trkpt lat="45.69082" lon="-1.16907">
        <ele>6.6</ele>
        <time>2023-10-28T14:04:59Z</time>
      </trkpt>
      <trkpt lat="45.6908" lon="-1.1688">
        <ele>6.4</ele>
        <time>2023-10-28T14:05:05Z</time>
      </trkpt>
      <trkpt lat="45.6909" lon="-1.16875">
        <ele>6.3</ele>
        <time>2023-10-28T14:05:08Z</time>
      </trkpt>
      <trkpt lat="45.691" lon="-1.1689">
        <ele>6.4</ele>
        <time>2023-10-28T14:05:16Z</time>
      </trkpt>
      <trkpt lat="45.69083" lon="-1.16876">
        <ele>6.3</ele>
        <time>2023-10-28T14:05:23Z</time>
      </trkpt>
      <trkpt lat="45.69076" lon="-1.16868">
        <ele>6.3</ele>
        <time>2023-10-28T14:05:28Z</time>
      </trkpt>
      <trkpt lat="45.69063" lon="-1.16885">
        <ele>6.7</ele>
        <time>2023-10-28T14:05:42Z</time>
      </trkpt>
      <trkpt lat="45.69049" lon="-1.16889">
        <ele>6.9</ele>
        <time>2023-10-28T14:05:46Z</time>
      </trkpt>
      <trkpt lat="45.69042" lon="-1.16884">
        <ele>6.9</ele>
        <time>2023-10-28T14:05:49Z</time>
      </trkpt>
      <trkpt lat="45.69041" lon="-1.16876">
        <ele>6.8</ele>
        <time>2023-10-28T14:05:51Z</time>
      </trkpt>
      <trkpt lat="45.69034" lon="-1.16851">
        <ele>6.3</ele>
        <time>2023-10-28T14:05:56Z</time>
      </trkpt>
      <trkpt lat="45.69034" lon="-1.1684">
        <ele>6</ele>
        <time>2023-10-28T14:05:59Z</time>
      </trkpt>
      <trkpt lat="45.69031" lon="-1.16837">
        <ele>6</ele>
        <time>2023-10-28T14:06:03Z</time>
      </trkpt>
      <trkpt lat="45.69015" lon="-1.16854">
        <ele>6.7</ele>
        <time>2023-10-28T14:06:08Z</time>
      </trkpt>
      <trkpt lat="45.69" lon="-1.1687">
        <ele>7.2</ele>
        <time>2023-10-28T14:06:12Z</time>
      </trkpt>
      <trkpt lat="45.68992" lon="-1.16878">
        <ele>7.5</ele>
        <time>2023-10-28T14:06:14Z</time>
      </trkpt>
      <trkpt lat="45.68989" lon="-1.16904">
        <ele>8</ele>
        <time>2023-10-28T14:06:18Z</time>
      </trkpt>
      <trkpt lat="45.68988" lon="-1.16931">
        <ele>8.1</ele>
        <time>2023-10-28T14:06:22Z</time>
      </trkpt>
      <trkpt lat="45.68982" lon="-1.16949">
        <ele>8.2</ele>
        <time>2023-10-28T14:06:25Z</time>
      </trkpt>
      <trkpt lat="45.68967" lon="-1.1697">
        <ele>8.6</ele>
        <time>2023-10-28T14:06:30Z</time>
      </trkpt>
      <trkpt lat="45.68961" lon="-1.16976">
        <ele>8.7</ele>
        <time>2023-10-28T14:06:31Z</time>
      </trkpt>
      <trkpt lat="45.68955" lon="-1.16982">
        <ele>8.8</ele>
        <time>2023-10-28T14:06:34Z</time>
      </trkpt>
      <trkpt lat="45.68956" lon="-1.16993">
        <ele>8.8</ele>
        <time>2023-10-28T14:06:37Z</time>
      </trkpt>
      <trkpt lat="45.68968" lon="-1.17012">
        <ele>8.4</ele>
        <time>2023-10-28T14:06:44Z</time>
      </trkpt>
      <trkpt lat="45.68983" lon="-1.17032">
        <ele>7.8</ele>
        <time>2023-10-28T14:06:50Z</time>
      </trkpt>
      <trkpt lat="45.68999" lon="-1.17045">
        <ele>7.4</ele>
        <time>2023-10-28T14:06:55Z</time>
      </trkpt>
      <trkpt lat="45.69019" lon="-1.17052">
        <ele>7.3</ele>
        <time>2023-10-28T14:07:00Z</time>
      </trkpt>
      <trkpt lat="45.69036" lon="-1.17065">
        <ele>7.7</ele>
        <time>2023-10-28T14:07:04Z</time>
      </trkpt>
      <trkpt lat="45.69041" lon="-1.17074">
        <ele>7.9</ele>
        <time>2023-10-28T14:07:06Z</time>
      </trkpt>
      <trkpt lat="45.69039" lon="-1.17086">
        <ele>7.9</ele>
        <time>2023-10-28T14:07:08Z</time>
      </trkpt>
      <trkpt lat="45.69029" lon="-1.17111">
        <ele>8</ele>
        <time>2023-10-28T14:07:12Z</time>
      </trkpt>
      <trkpt lat="45.69021" lon="-1.1713">
        <ele>8.2</ele>
        <time>2023-10-28T14:07:15Z</time>
      </trkpt>
      <trkpt lat="45.69011" lon="-1.17154">
        <ele>8.4</ele>
        <time>2023-10-28T14:07:19Z</time>
      </trkpt>
      <trkpt lat="45.69" lon="-1.1718">
        <ele>8.5</ele>
        <time>2023-10-28T14:07:24Z</time>
      </trkpt>
      <trkpt lat="45.6899" lon="-1.17203">
        <ele>8.5</ele>
        <time>2023-10-28T14:07:28Z</time>
      </trkpt>
      <trkpt lat="45.68981" lon="-1.17226">
        <ele>8.3</ele>
        <time>2023-10-28T14:07:32Z</time>
      </trkpt>
      <trkpt lat="45.68978" lon="-1.1724">
        <ele>8.4</ele>
        <time>2023-10-28T14:07:33Z</time>
      </trkpt>
      <trkpt lat="45.68975" lon="-1.17264">
        <ele>8.7</ele>
        <time>2023-10-28T14:07:38Z</time>
      </trkpt>
      <trkpt lat="45.68987" lon="-1.17288">
        <ele>8.4</ele>
        <time>2023-10-28T14:07:44Z</time>
      </trkpt>
      <trkpt lat="45.68991" lon="-1.17296">
        <ele>8.2</ele>
        <time>2023-10-28T14:07:46Z</time>
      </trkpt>
      <trkpt lat="45.69007" lon="-1.17285">
        <ele>8.2</ele>
        <time>2023-10-28T14:07:52Z</time>
      </trkpt>
      <trkpt lat="45.69022" lon="-1.1728">
        <ele>8.2</ele>
        <time>2023-10-28T14:07:56Z</time>
      </trkpt>
      <trkpt lat="45.69039" lon="-1.1729">
        <ele>8.2</ele>
        <time>2023-10-28T14:08:00Z</time>
      </trkpt>
      <trkpt lat="45.69043" lon="-1.17291">
        <ele>8.2</ele>
        <time>2023-10-28T14:08:01Z</time>
      </trkpt>
      <trkpt lat="45.69047" lon="-1.17292">
        <ele>8.2</ele>
        <time>2023-10-28T14:08:04Z</time>
      </trkpt>
      <trkpt lat="45.69029" lon="-1.17308">
        <ele>8.3</ele>
        <time>2023-10-28T14:08:09Z</time>
      </trkpt>
      <trkpt lat="45.69015" lon="-1.17329">
        <ele>8.2</ele>
        <time>2023-10-28T14:08:14Z</time>
      </trkpt>
      <trkpt lat="45.69008" lon="-1.17343">
        <ele>8.2</ele>
        <time>2023-10-28T14:08:17Z</time>
      </trkpt>
      <trkpt lat="45.6901" lon="-1.17353">
        <ele>8.1</ele>
        <time>2023-10-28T14:08:20Z</time>
      </trkpt>
      <trkpt lat="45.69018" lon="-1.17359">
        <ele>8</ele>
        <time>2023-10-28T14:08:23Z</time>
      </trkpt>
      <trkpt lat="45.69032" lon="-1.17357">
        <ele>7.9</ele>
        <time>2023-10-28T14:08:28Z</time>
      </trkpt>
      <trkpt lat="45.6904" lon="-1.17382">
        <ele>7.9</ele>
        <time>2023-10-28T14:08:33Z</time>
      </trkpt>
      <trkpt lat="45.69049" lon="-1.17397">
        <ele>7.8</ele>
        <time>2023-10-28T14:08:37Z</time>
      </trkpt>
      <trkpt lat="45.69067" lon="-1.17386">
        <ele>7.5</ele>
        <time>2023-10-28T14:08:42Z</time>
      </trkpt>
      <trkpt lat="45.69074" lon="-1.17379">
        <ele>7.4</ele>
        <time>2023-10-28T14:08:43Z</time>
      </trkpt>
      <trkpt lat="45.69075" lon="-1.17379">
        <ele>7.4</ele>
        <time>2023-10-28T14:08:45Z</time>
      </trkpt>
      <trkpt lat="45.69078" lon="-1.17411">
        <ele>7.3</ele>
        <time>2023-10-28T14:08:51Z</time>
      </trkpt>
      <trkpt lat="45.69077" lon="-1.17417">
        <ele>7.4</ele>
        <time>2023-10-28T14:08:52Z</time>
      </trkpt>
      <trkpt lat="45.69068" lon="-1.17428">
        <ele>7.6</ele>
        <time>2023-10-28T14:08:55Z</time>
      </trkpt>
      <trkpt lat="45.6906" lon="-1.17432">
        <ele>7.8</ele>
        <time>2023-10-28T14:08:57Z</time>
      </trkpt>
      <trkpt lat="45.69051" lon="-1.17445">
        <ele>7.8</ele>
        <time>2023-10-28T14:09:00Z</time>
      </trkpt>
      <trkpt lat="45.69049" lon="-1.17456">
        <ele>7.8</ele>
        <time>2023-10-28T14:09:02Z</time>
      </trkpt>
      <trkpt lat="45.69053" lon="-1.17467">
        <ele>7.8</ele>
        <time>2023-10-28T14:09:05Z</time>
      </trkpt>
      <trkpt lat="45.69055" lon="-1.17465">
        <ele>7.8</ele>
        <time>2023-10-28T14:09:08Z</time>
      </trkpt>
      <trkpt lat="45.69046" lon="-1.17442">
        <ele>7.8</ele>
        <time>2023-10-28T14:09:13Z</time>
      </trkpt>
      <trkpt lat="45.69043" lon="-1.17438">
        <ele>7.8</ele>
        <time>2023-10-28T14:09:14Z</time>
      </trkpt>
      <trkpt lat="45.69025" lon="-1.17439">
        <ele>8</ele>
        <time>2023-10-28T14:09:19Z</time>
      </trkpt>
      <trkpt lat="45.69023" lon="-1.17436">
        <ele>8</ele>
        <time>2023-10-28T14:09:20Z</time>
      </trkpt>
      <trkpt lat="45.69016" lon="-1.17422">
        <ele>7.9</ele>
        <time>2023-10-28T14:09:23Z</time>
      </trkpt>
      <trkpt lat="45.69019" lon="-1.17407">
        <ele>7.9</ele>
        <time>2023-10-28T14:09:26Z</time>
      </trkpt>
      <trkpt lat="45.69028" lon="-1.17389">
        <ele>8</ele>
        <time>2023-10-28T14:09:34Z</time>
      </trkpt>
      <trkpt lat="45.69044" lon="-1.17395">
        <ele>7.8</ele>
        <time>2023-10-28T14:09:43Z</time>
      </trkpt>
      <trkpt lat="45.69062" lon="-1.17391">
        <ele>7.6</ele>
        <time>2023-10-28T14:09:47Z</time>
      </trkpt>
      <trkpt lat="45.69066" lon="-1.17389">
        <ele>7.5</ele>
        <time>2023-10-28T14:09:48Z</time>
      </trkpt>
      <trkpt lat="45.69074" lon="-1.17371">
        <ele>7.4</ele>
        <time>2023-10-28T14:09:51Z</time>
      </trkpt>
      <trkpt lat="45.69072" lon="-1.17356">
        <ele>7.5</ele>
        <time>2023-10-28T14:09:53Z</time>
      </trkpt>
      <trkpt lat="45.69067" lon="-1.17333">
        <ele>7.5</ele>
        <time>2023-10-28T14:09:56Z</time>
      </trkpt>
      <trkpt lat="45.69069" lon="-1.17305">
        <ele>7.3</ele>
        <time>2023-10-28T14:10:00Z</time>
      </trkpt>
      <trkpt lat="45.69072" lon="-1.17293">
        <ele>7.5</ele>
        <time>2023-10-28T14:10:01Z</time>
      </trkpt>
      <trkpt lat="45.69081" lon="-1.17268">
        <ele>7.9</ele>
        <time>2023-10-28T14:10:06Z</time>
      </trkpt>
      <trkpt lat="45.69087" lon="-1.17249">
        <ele>8.1</ele>
        <time>2023-10-28T14:10:09Z</time>
      </trkpt>
      <trkpt lat="45.69087" lon="-1.17235">
        <ele>8.1</ele>
        <time>2023-10-28T14:10:11Z</time>
      </trkpt>
      <trkpt lat="45.69087" lon="-1.17208">
        <ele>7.8</ele>
        <time>2023-10-28T14:10:15Z</time>
      </trkpt>
      <trkpt lat="45.6909" lon="-1.1718">
        <ele>7.3</ele>
        <time>2023-10-28T14:10:19Z</time>
      </trkpt>
      <trkpt lat="45.69096" lon="-1.17163">
        <ele>7.2</ele>
        <time>2023-10-28T14:10:22Z</time>
      </trkpt>
      <trkpt lat="45.69103" lon="-1.17155">
        <ele>7.3</ele>
        <time>2023-10-28T14:10:24Z</time>
      </trkpt>
      <trkpt lat="45.69113" lon="-1.17144">
        <ele>7.5</ele>
        <time>2023-10-28T14:10:27Z</time>
      </trkpt>
      <trkpt lat="45.69115" lon="-1.17133">
        <ele>7.7</ele>
        <time>2023-10-28T14:10:29Z</time>
      </trkpt>
      <trkpt lat="45.69105" lon="-1.17111">
        <ele>7.6</ele>
        <time>2023-10-28T14:10:33Z</time>
      </trkpt>
      <trkpt lat="45.69102" lon="-1.171">
        <ele>7.6</ele>
        <time>2023-10-28T14:10:35Z</time>
      </trkpt>
      <trkpt lat="45.69105" lon="-1.17086">
        <ele>7.8</ele>
        <time>2023-10-28T14:10:39Z</time>
      </trkpt>
      <trkpt lat="45.6912" lon="-1.17071">
        <ele>8.2</ele>
        <time>2023-10-28T14:10:45Z</time>
      </trkpt>
      <trkpt lat="45.69137" lon="-1.17053">
        <ele>8.3</ele>
        <time>2023-10-28T14:10:51Z</time>
      </trkpt>
      <trkpt lat="45.69143" lon="-1.17035">
        <ele>7.9</ele>
        <time>2023-10-28T14:10:55Z</time>
      </trkpt>
      <trkpt lat="45.69151" lon="-1.17014">
        <ele>7.2</ele>
        <time>2023-10-28T14:11:00Z</time>
      </trkpt>
      <trkpt lat="45.69169" lon="-1.17013">
        <ele>7.3</ele>
        <time>2023-10-28T14:11:04Z</time>
      </trkpt>
      <trkpt lat="45.69188" lon="-1.17013">
        <ele>7.3</ele>
        <time>2023-10-28T14:11:08Z</time>
      </trkpt>
      <trkpt lat="45.69208" lon="-1.17016">
        <ele>7.3</ele>
        <time>2023-10-28T14:11:12Z</time>
      </trkpt>
      <trkpt lat="45.69226" lon="-1.17021">
        <ele>7.3</ele>
        <time>2023-10-28T14:11:16Z</time>
      </trkpt>
      <trkpt lat="45.69235" lon="-1.17016">
        <ele>7.4</ele>
        <time>2023-10-28T14:11:18Z</time>
      </trkpt>
      <trkpt lat="45.69248" lon="-1.16994">
        <ele>7.6</ele>
        <time>2023-10-28T14:11:22Z</time>
      </trkpt>
      <trkpt lat="45.6925" lon="-1.16987">
        <ele>7.6</ele>
        <time>2023-10-28T14:11:23Z</time>
      </trkpt>
      <trkpt lat="45.69252" lon="-1.16966">
        <ele>7.7</ele>
        <time>2023-10-28T14:11:26Z</time>
      </trkpt>
      <trkpt lat="45.6925" lon="-1.16937">
        <ele>7.8</ele>
        <time>2023-10-28T14:11:30Z</time>
      </trkpt>
      <trkpt lat="45.69253" lon="-1.16925">
        <ele>8</ele>
        <time>2023-10-28T14:11:33Z</time>
      </trkpt>
      <trkpt lat="45.69269" lon="-1.16909">
        <ele>8.6</ele>
        <time>2023-10-28T14:11:43Z</time>
      </trkpt>
      <trkpt lat="45.69288" lon="-1.16906">
        <ele>9.8</ele>
        <time>2023-10-28T14:11:52Z</time>
      </trkpt>
      <trkpt lat="45.69308" lon="-1.16914">
        <ele>11.5</ele>
        <time>2023-10-28T14:11:59Z</time>
      </trkpt>
      <trkpt lat="45.69326" lon="-1.16918">
        <ele>12.7</ele>
        <time>2023-10-28T14:12:05Z</time>
      </trkpt>
      <trkpt lat="45.69346" lon="-1.16921">
        <ele>12.3</ele>
        <time>2023-10-28T14:12:11Z</time>
      </trkpt>
      <trkpt lat="45.69353" lon="-1.16932">
        <ele>12</ele>
        <time>2023-10-28T14:12:12Z</time>
      </trkpt>
      <trkpt lat="45.69364" lon="-1.16955">
        <ele>11.3</ele>
        <time>2023-10-28T14:12:17Z</time>
      </trkpt>
      <trkpt lat="45.69374" lon="-1.16978">
        <ele>11</ele>
        <time>2023-10-28T14:12:21Z</time>
      </trkpt>
      <trkpt lat="45.69392" lon="-1.16984">
        <ele>10.5</ele>
        <time>2023-10-28T14:12:26Z</time>
      </trkpt>
      <trkpt lat="45.6941" lon="-1.16983">
        <ele>10.1</ele>
        <time>2023-10-28T14:12:33Z</time>
      </trkpt>
      <trkpt lat="45.69428" lon="-1.16969">
        <ele>9.4</ele>
        <time>2023-10-28T14:12:41Z</time>
      </trkpt>
      <trkpt lat="45.69436" lon="-1.16959">
        <ele>9</ele>
        <time>2023-10-28T14:12:44Z</time>
      </trkpt>
      <trkpt lat="45.69435" lon="-1.16949">
        <ele>8.9</ele>
        <time>2023-10-28T14:12:46Z</time>
      </trkpt>
      <trkpt lat="45.69436" lon="-1.16928">
        <ele>8.7</ele>
        <time>2023-10-28T14:12:49Z</time>
      </trkpt>
      <trkpt lat="45.69444" lon="-1.16919">
        <ele>8.3</ele>
        <time>2023-10-28T14:12:51Z</time>
      </trkpt>
      <trkpt lat="45.6946" lon="-1.16928">
        <ele>7.9</ele>
        <time>2023-10-28T14:12:55Z</time>
      </trkpt>
      <trkpt lat="45.69466" lon="-1.16953">
        <ele>7.8</ele>
        <time>2023-10-28T14:12:59Z</time>
      </trkpt>
      <trkpt lat="45.6947" lon="-1.1698">
        <ele>7.8</ele>
        <time>2023-10-28T14:13:03Z</time>
      </trkpt>
      <trkpt lat="45.69476" lon="-1.17001">
        <ele>7.4</ele>
        <time>2023-10-28T14:13:07Z</time>
      </trkpt>
      <trkpt lat="45.69481" lon="-1.17006">
        <ele>7</ele>
        <time>2023-10-28T14:13:10Z</time>
      </trkpt>
      <trkpt lat="45.69486" lon="-1.17036">
        <ele>6.5</ele>
        <time>2023-10-28T14:13:15Z</time>
      </trkpt>
      <trkpt lat="45.69492" lon="-1.17044">
        <ele>6.1</ele>
        <time>2023-10-28T14:13:16Z</time>
      </trkpt>
      <trkpt lat="45.69496" lon="-1.17046">
        <ele>5.9</ele>
        <time>2023-10-28T14:13:18Z</time>
      </trkpt>
      <trkpt lat="45.69514" lon="-1.17055">
        <ele>4.8</ele>
        <time>2023-10-28T14:13:22Z</time>
      </trkpt>
      <trkpt lat="45.69532" lon="-1.17061">
        <ele>4</ele>
        <time>2023-10-28T14:13:26Z</time>
      </trkpt>
      <trkpt lat="45.69539" lon="-1.17051">
        <ele>4.1</ele>
        <time>2023-10-28T14:13:29Z</time>
      </trkpt>
      <trkpt lat="45.69538" lon="-1.17036">
        <ele>4.3</ele>
        <time>2023-10-28T14:13:33Z</time>
      </trkpt>
      <trkpt lat="45.69542" lon="-1.17031">
        <ele>4.3</ele>
        <time>2023-10-28T14:13:36Z</time>
      </trkpt>
      <trkpt lat="45.69543" lon="-1.17006">
        <ele>4.8</ele>
        <time>2023-10-28T14:13:41Z</time>
      </trkpt>
      <trkpt lat="45.69538" lon="-1.16979">
        <ele>5.2</ele>
        <time>2023-10-28T14:13:45Z</time>
      </trkpt>
      <trkpt lat="45.69537" lon="-1.16957">
        <ele>5.4</ele>
        <time>2023-10-28T14:13:49Z</time>
      </trkpt>
      <trkpt lat="45.69531" lon="-1.16935">
        <ele>5.6</ele>
        <time>2023-10-28T14:13:56Z</time>
      </trkpt>
      <trkpt lat="45.69546" lon="-1.16947">
        <ele>5.3</ele>
        <time>2023-10-28T14:14:00Z</time>
      </trkpt>
      <trkpt lat="45.69561" lon="-1.16967">
        <ele>5</ele>
        <time>2023-10-28T14:14:03Z</time>
      </trkpt>
      <trkpt lat="45.69569" lon="-1.16982">
        <ele>4.8</ele>
        <time>2023-10-28T14:14:05Z</time>
      </trkpt>
      <trkpt lat="45.69575" lon="-1.1701">
        <ele>4.4</ele>
        <time>2023-10-28T14:14:08Z</time>
      </trkpt>
      <trkpt lat="45.6958" lon="-1.17038">
        <ele>3.8</ele>
        <time>2023-10-28T14:14:11Z</time>
      </trkpt>
      <trkpt lat="45.69584" lon="-1.17067">
        <ele>3.2</ele>
        <time>2023-10-28T14:14:14Z</time>
      </trkpt>
      <trkpt lat="45.69588" lon="-1.17097">
        <ele>2.8</ele>
        <time>2023-10-28T14:14:18Z</time>
      </trkpt>
      <trkpt lat="45.69591" lon="-1.17109">
        <ele>2.6</ele>
        <time>2023-10-28T14:14:23Z</time>
      </trkpt>
      <trkpt lat="45.69595" lon="-1.17108">
        <ele>2.7</ele>
        <time>2023-10-28T14:14:26Z</time>
      </trkpt>
      <trkpt lat="45.69596" lon="-1.17095">
        <ele>2.9</ele>
        <time>2023-10-28T14:14:34Z</time>
      </trkpt>
    </trkseg>
  </trk>
</gpx>